createdAt,value
2023-02-28T00:02:11.117Z,99455.72
2023-02-28T00:05:21.213Z,99463.63
2023-02-28T00:08:28.229Z,99461.13
2023-02-28T00:11:33.855Z,99460.38
2023-02-28T00:14:40.652Z,99365.06
2023-02-28T00:17:50.147Z,99442.44
2023-02-28T00:20:56.726Z,99453.59
2023-02-28T00:24:02.206Z,99458.00
2023-02-28T00:27:08.566Z,99463.22
2023-02-28T00:30:19.424Z,99439.16
2023-02-28T00:33:28.657Z,99458.97
2023-02-28T00:36:34.176Z,99467.78
2023-02-28T00:39:44.880Z,99475.66
2023-02-28T00:42:50.314Z,99480.91
2023-02-28T00:45:57.339Z,99474.00
2023-02-28T00:49:05.824Z,99470.59
2023-02-28T00:52:12.113Z,99463.72
2023-02-28T00:55:18.230Z,99465.44
2023-02-28T00:58:24.853Z,99479.25
2023-02-28T01:01:30.819Z,99477.50
2023-02-28T01:04:41.212Z,99480.94
2023-02-28T01:07:46.568Z,99470.56
2023-02-28T01:10:53.254Z,99471.44
2023-02-28T01:13:58.928Z,99472.34
2023-02-28T01:17:05.827Z,99454.28
2023-02-28T01:20:15.568Z,99469.81
2023-02-28T01:23:22.844Z,99476.72
2023-02-28T01:26:28.925Z,99467.16
2023-02-28T01:29:35.179Z,99472.38
2023-02-28T01:32:40.856Z,99460.34
2023-02-28T01:35:50.160Z,99455.19
2023-02-28T01:38:56.433Z,99456.97
2023-02-28T01:42:02.668Z,99455.22
2023-02-28T01:45:26.222Z,99456.19
2023-02-28T01:48:40.889Z,99457.94
2023-02-28T01:51:55.971Z,99446.78
2023-02-28T01:55:08.556Z,99455.38
2023-02-28T01:58:15.691Z,99455.38
2023-02-28T02:01:25.330Z,99443.38
2023-02-28T02:04:43.048Z,99440.78
2023-02-28T02:07:59.505Z,99443.38
2023-02-28T02:11:07.190Z,99448.63
2023-02-28T02:14:44.291Z,99442.63
2023-02-28T02:17:57.521Z,99442.66
2023-02-28T02:21:45.746Z,99434.06
2023-02-28T02:25:27.615Z,99349.00
2023-02-28T02:29:16.482Z,99447.00
2023-02-28T02:33:04.708Z,99440.09
2023-02-28T02:36:26.531Z,99431.56
2023-02-28T02:39:49.415Z,99439.31
2023-02-28T02:43:05.353Z,99417.81
2023-02-28T02:46:21.073Z,99440.22
2023-02-28T02:49:36.296Z,99433.31
2023-02-28T02:52:54.123Z,99435.06
2023-02-28T02:56:06.385Z,99442.78
2023-02-28T02:59:22.210Z,99435.91
2023-02-28T03:02:35.180Z,99443.66
2023-02-28T03:05:51.345Z,99446.28
2023-02-28T03:09:00.678Z,99448.84
2023-02-28T03:12:13.892Z,99448.00
2023-02-28T03:15:32.139Z,99446.25
2023-02-28T03:18:58.840Z,99444.56
2023-02-28T03:22:29.162Z,99447.13
2023-02-28T03:25:56.479Z,99447.97
2023-02-28T03:29:14.121Z,99443.69
2023-02-28T03:32:31.000Z,99448.84
2023-02-28T03:35:45.872Z,99455.72
2023-02-28T03:39:03.794Z,99455.72
2023-02-28T03:42:21.320Z,99460.88
2023-02-28T03:45:33.913Z,99463.47
2023-02-28T03:48:48.623Z,99465.19
2023-02-28T03:52:00.366Z,99462.59
2023-02-28T03:55:14.865Z,99463.47
2023-02-28T03:58:34.251Z,99467.78
2023-02-28T04:01:46.984Z,99464.31
2023-02-28T04:04:52.613Z,99465.19
2023-02-28T04:08:08.669Z,99464.31
2023-02-28T04:11:32.177Z,99479.81
2023-02-28T04:14:41.684Z,99455.72
2023-02-28T04:17:47.071Z,99465.19
2023-02-28T04:20:53.585Z,99477.22
2023-02-28T04:24:01.838Z,99477.22
2023-02-28T04:27:08.196Z,99483.22
2023-02-28T04:30:17.527Z,99481.50
2023-02-28T04:33:23.807Z,99490.09
2023-02-28T04:36:29.883Z,99492.69
2023-02-28T04:39:41.017Z,99490.09
2023-02-28T04:42:46.434Z,99494.44
2023-02-28T04:45:55.645Z,99494.44
2023-02-28T04:49:01.174Z,99495.28
2023-02-28T04:52:08.817Z,99498.72
2023-02-28T04:55:14.634Z,99501.31
2023-02-28T04:58:20.873Z,99504.75
2023-02-28T05:01:33.521Z,99493.56
2023-02-28T05:04:40.676Z,99500.44
2023-02-28T05:07:46.221Z,99500.44
2023-02-28T05:10:52.660Z,99496.13
2023-02-28T05:13:58.146Z,99496.16
2023-02-28T05:17:07.246Z,99505.63
2023-02-28T05:20:16.372Z,99502.16
2023-02-28T05:23:26.652Z,99488.38
2023-02-28T05:26:33.105Z,99505.59
2023-02-28T05:29:44.440Z,99509.03
2023-02-28T05:32:55.910Z,99508.16
2023-02-28T05:36:02.208Z,99503.84
2023-02-28T05:39:13.858Z,99515.84
2023-02-28T05:42:20.513Z,99527.88
2023-02-28T05:45:26.186Z,99522.72
2023-02-28T05:48:35.505Z,99528.72
2023-02-28T05:51:41.212Z,99520.13
2023-02-28T05:54:47.480Z,99529.59
2023-02-28T05:57:53.431Z,99535.63
2023-02-28T06:01:00.234Z,99536.47
2023-02-28T06:04:22.260Z,99539.91
2023-02-28T06:07:31.990Z,99539.03
2023-02-28T06:10:38.149Z,99537.34
2023-02-28T06:13:44.734Z,99543.34
2023-02-28T06:16:51.192Z,99505.47
2023-02-28T06:20:00.569Z,99541.63
2023-02-28T06:23:06.706Z,99560.56
2023-02-28T06:26:13.475Z,99554.53
2023-02-28T06:29:20.551Z,99563.13
2023-02-28T06:32:27.498Z,99552.81
2023-02-28T06:35:35.861Z,99551.97
2023-02-28T06:38:43.615Z,99564.06
2023-02-28T06:41:55.468Z,99565.75
2023-02-28T06:45:04.559Z,99561.47
2023-02-28T06:48:10.290Z,99564.94
2023-02-28T06:51:23.541Z,99562.38
2023-02-28T06:54:29.865Z,99558.09
2023-02-28T06:57:38.897Z,99567.59
2023-02-28T07:00:45.007Z,99567.59
2023-02-28T07:03:53.507Z,99572.75
2023-02-28T07:07:02.088Z,99317.97
2023-02-28T07:10:09.650Z,99579.66
2023-02-28T07:13:15.603Z,99584.84
2023-02-28T07:16:22.910Z,99584.88
2023-02-28T07:19:28.594Z,99593.47
2023-02-28T07:22:37.699Z,99588.31
2023-02-28T07:25:43.090Z,99585.72
2023-02-28T07:28:52.377Z,99585.72
2023-02-28T07:31:58.220Z,99589.16
2023-02-28T07:35:04.628Z,99584.81
2023-02-28T07:38:14.924Z,99582.22
2023-02-28T07:41:29.131Z,99589.97
2023-02-28T07:44:34.788Z,99583.03
2023-02-28T07:47:41.603Z,99586.47
2023-02-28T07:50:49.310Z,99576.13
2023-02-28T07:53:58.444Z,99582.09
2023-02-28T07:57:04.304Z,99588.97
2023-02-28T08:00:16.762Z,99593.28
2023-02-28T08:03:24.911Z,99584.59
2023-02-28T08:06:31.509Z,99584.59
2023-02-28T08:09:40.279Z,99582.84
2023-02-28T08:12:46.699Z,99577.72
2023-02-28T08:15:52.260Z,99588.00
2023-02-28T08:18:58.777Z,99590.56
2023-02-28T08:22:04.221Z,99586.22
2023-02-28T08:25:13.682Z,99590.47
2023-02-28T08:28:19.149Z,99574.03
2023-02-28T08:31:25.605Z,99585.13
2023-02-28T08:34:31.040Z,99580.75
2023-02-28T08:37:37.467Z,99583.28
2023-02-28T08:40:45.770Z,99587.56
2023-02-28T08:43:52.050Z,99588.41
2023-02-28T08:46:57.527Z,99596.13
2023-02-28T08:50:03.798Z,99593.47
2023-02-28T08:53:09.241Z,99589.03
2023-02-28T08:56:21.150Z,99589.00
2023-02-28T08:59:26.958Z,99587.06
2023-02-28T09:02:33.465Z,99597.31
2023-02-28T09:05:39.339Z,99583.34
2023-02-28T09:08:46.657Z,99591.88
2023-02-28T09:11:54.830Z,99584.94
2023-02-28T09:15:01.215Z,99581.47
2023-02-28T09:18:06.731Z,99587.28
2023-02-28T09:21:19.424Z,99593.16
2023-02-28T09:24:24.897Z,99587.84
2023-02-28T09:27:35.124Z,99585.03
2023-02-28T09:30:41.399Z,99590.06
2023-02-28T09:33:48.134Z,99576.22
2023-02-28T09:36:56.571Z,99589.97
2023-02-28T09:40:03.455Z,99580.53
2023-02-28T09:43:21.845Z,99583.19
2023-02-28T09:46:41.876Z,99517.00
2023-02-28T09:49:52.055Z,99580.50
2023-02-28T09:53:00.621Z,99595.00
2023-02-28T09:56:14.278Z,99594.13
2023-02-28T09:59:44.365Z,99591.66
2023-02-28T10:03:28.061Z,99600.38
2023-02-28T10:06:48.385Z,99590.78
2023-02-28T10:10:04.348Z,99600.38
2023-02-28T10:13:29.041Z,99606.56
2023-02-28T10:16:47.517Z,99595.44
2023-02-28T10:20:09.061Z,99590.44
2023-02-28T10:23:24.979Z,99587.91
2023-02-28T10:26:37.003Z,99527.78
2023-02-28T10:29:48.913Z,99574.13
2023-02-28T10:32:58.179Z,99576.44
2023-02-28T10:36:04.360Z,99571.78
2023-02-28T10:39:43.018Z,99574.09
2023-02-28T10:43:02.535Z,99563.56
2023-02-28T10:46:27.212Z,99564.00
2023-02-28T10:49:35.962Z,99576.88
2023-02-28T10:52:44.835Z,99555.41
2023-02-28T10:56:02.700Z,99555.47
2023-02-28T10:59:34.033Z,99564.03
2023-02-28T11:02:44.093Z,99566.50
2023-02-28T11:05:53.206Z,99557.03
2023-02-28T11:09:03.501Z,99548.47
2023-02-28T11:12:23.531Z,99559.56
2023-02-28T11:15:33.654Z,99538.81
2023-02-28T11:18:50.877Z,99553.63
2023-02-28T11:22:04.725Z,99541.72
2023-02-28T11:25:24.094Z,99541.81
2023-02-28T11:28:33.697Z,99527.50
2023-02-28T11:31:40.029Z,99538.84
2023-02-28T11:34:47.493Z,99527.66
2023-02-28T11:37:57.487Z,99529.41
2023-02-28T11:41:44.275Z,99511.25
2023-02-28T11:45:20.530Z,99499.13
2023-02-28T11:48:37.043Z,99519.78
2023-02-28T11:51:58.121Z,99513.84
2023-02-28T11:55:23.577Z,99506.19
2023-02-28T11:58:48.682Z,99510.66
2023-02-28T12:02:25.214Z,99508.09
2023-02-28T12:05:47.146Z,99502.97
2023-02-28T12:09:08.409Z,99496.09
2023-02-28T12:12:39.733Z,99485.50
2023-02-28T12:16:24.532Z,99481.91
2023-02-28T12:19:45.964Z,99480.97
2023-02-28T12:23:12.763Z,99490.38
2023-02-28T12:26:35.773Z,99484.34
2023-02-28T12:29:54.392Z,99492.31
2023-02-28T12:33:11.776Z,99497.75
2023-02-28T12:36:25.052Z,99492.66
2023-02-28T12:39:49.873Z,99492.59
2023-02-28T12:43:02.590Z,99495.25
2023-02-28T12:46:22.695Z,99489.28
2023-02-28T12:49:36.985Z,99470.25
2023-02-28T12:52:58.573Z,99472.00
2023-02-28T12:56:26.439Z,99477.28
2023-02-28T12:59:44.399Z,99484.22
2023-02-28T13:03:46.823Z,99470.53
2023-02-28T13:07:23.584Z,99477.44
2023-02-28T13:10:43.134Z,99464.50
2023-02-28T13:13:50.218Z,99476.38
2023-02-28T13:17:14.390Z,99457.25
2023-02-28T13:20:29.194Z,99461.38
2023-02-28T13:24:03.335Z,99478.53
2023-02-28T13:27:43.941Z,99475.06
2023-02-28T13:31:09.104Z,99464.28
2023-02-28T13:34:20.411Z,99455.53
2023-02-28T13:37:50.997Z,99465.03
2023-02-28T13:40:58.452Z,99461.53
2023-02-28T13:44:09.045Z,99458.84
2023-02-28T13:47:31.925Z,99459.69
2023-02-28T13:50:41.626Z,99461.31
2023-02-28T13:54:19.350Z,99464.75
2023-02-28T13:57:46.388Z,99457.88
2023-02-28T14:01:20.925Z,99442.13
2023-02-28T14:05:03.277Z,99448.75
2023-02-28T14:08:19.374Z,99437.56
2023-02-28T14:11:40.601Z,99446.97
2023-02-28T14:15:00.998Z,99440.13
2023-02-28T14:18:19.894Z,99436.75
2023-02-28T14:21:31.066Z,99421.28
2023-02-28T14:25:12.394Z,99435.06
2023-02-28T14:28:43.949Z,99423.09
2023-02-28T14:32:02.343Z,99425.66
2023-02-28T14:35:32.565Z,99428.22
2023-02-28T14:38:49.461Z,99417.91
2023-02-28T14:41:58.693Z,99410.94
2023-02-28T14:45:08.351Z,99422.06
2023-02-28T14:48:14.990Z,99421.00
2023-02-28T14:51:25.364Z,99410.63
2023-02-28T14:54:33.330Z,99417.50
2023-02-28T14:57:45.889Z,99420.00
2023-02-28T15:00:58.284Z,99413.06
2023-02-28T15:04:09.284Z,99414.84
2023-02-28T15:07:19.076Z,99419.31
2023-02-28T15:10:30.172Z,99412.34
2023-02-28T15:13:46.164Z,99357.41
2023-02-28T15:17:03.359Z,99405.41
2023-02-28T15:20:17.185Z,99418.31
2023-02-28T15:23:26.639Z,99415.72
2023-02-28T15:26:39.695Z,99422.81
2023-02-28T15:29:53.204Z,99423.59
2023-02-28T15:33:26.189Z,99436.66
2023-02-28T15:36:38.319Z,99416.81
2023-02-28T15:39:48.961Z,99422.94
2023-02-28T15:43:10.838Z,99423.00
2023-02-28T15:46:19.103Z,99421.31
2023-02-28T15:49:28.341Z,99409.31
2023-02-28T15:52:45.002Z,99421.44
2023-02-28T15:56:00.280Z,99387.28
2023-02-28T15:59:17.970Z,99425.16
2023-02-28T16:02:27.184Z,99339.38
2023-02-28T16:05:36.632Z,99426.16
2023-02-28T16:08:42.111Z,99418.47
2023-02-28T16:11:52.743Z,99414.25
2023-02-28T16:15:04.081Z,99427.09
2023-02-28T16:18:16.177Z,99425.28
2023-02-28T16:21:24.613Z,99424.38
2023-02-28T16:24:31.224Z,99423.50
2023-02-28T16:27:42.324Z,99419.19
2023-02-28T16:30:48.946Z,99423.53
2023-02-28T16:33:54.497Z,99427.81
2023-02-28T16:37:03.718Z,99440.78
2023-02-28T16:40:11.709Z,99430.44
2023-02-28T16:43:23.941Z,99443.47
2023-02-28T16:46:37.405Z,99439.22
2023-02-28T16:49:44.332Z,99446.22
2023-02-28T16:52:53.666Z,99453.19
2023-02-28T16:56:03.049Z,99447.13
2023-02-28T16:59:08.792Z,99450.66
2023-02-28T17:02:20.901Z,99449.88
2023-02-28T17:05:28.467Z,99448.16
2023-02-28T17:08:37.937Z,99456.91
2023-02-28T17:11:43.698Z,99463.03
2023-02-28T17:14:50.077Z,99471.75
2023-02-28T17:17:55.674Z,99464.00
2023-02-28T17:21:02.277Z,99461.50
2023-02-28T17:24:16.503Z,99454.59
2023-02-28T17:27:26.197Z,99459.78
2023-02-28T17:30:32.751Z,99461.59
2023-02-28T17:33:39.136Z,99463.38
2023-02-28T17:36:44.855Z,99467.75
2023-02-28T17:39:54.000Z,99471.25
2023-02-28T17:43:00.222Z,99466.09
2023-02-28T17:46:06.895Z,99462.72
2023-02-28T17:49:14.282Z,99473.97
2023-02-28T17:52:20.695Z,99467.94
2023-02-28T17:55:28.926Z,99468.88
2023-02-28T17:58:35.366Z,99468.06
2023-02-28T18:01:41.022Z,99468.97
2023-02-28T18:04:47.464Z,99465.53
2023-02-28T18:07:53.556Z,99468.16
2023-02-28T18:11:03.017Z,99462.97
2023-02-28T18:14:08.694Z,99468.19
2023-02-28T18:17:16.717Z,99471.69
2023-02-28T18:20:22.905Z,99469.97
2023-02-28T18:23:29.332Z,99469.16
2023-02-28T18:26:38.149Z,99468.31
2023-02-28T18:29:44.481Z,99459.72
2023-02-28T18:32:50.137Z,99463.16
2023-02-28T18:36:00.788Z,99465.78
2023-02-28T18:39:06.721Z,99471.84
2023-02-28T18:42:16.068Z,99467.56
2023-02-28T18:45:21.597Z,99468.44
2023-02-28T18:48:28.397Z,99465.00
2023-02-28T18:51:34.308Z,99452.97
2023-02-28T18:54:40.661Z,99460.69
2023-02-28T18:57:50.223Z,99457.28
2023-02-28T19:00:56.943Z,99466.81
2023-02-28T19:04:04.562Z,99460.81
2023-02-28T19:07:11.239Z,99456.50
2023-02-28T19:10:17.898Z,99452.19
2023-02-28T19:13:27.044Z,99453.94
2023-02-28T19:16:33.543Z,99449.59
2023-02-28T19:19:40.160Z,99454.75
2023-02-28T19:22:45.922Z,99442.75
2023-02-28T19:25:52.412Z,99444.47
2023-02-28T19:29:00.707Z,99453.06
2023-02-28T19:32:07.380Z,99466.88
2023-02-28T19:35:13.223Z,99458.28
2023-02-28T19:38:20.554Z,99471.22
2023-02-28T19:41:26.184Z,99463.47
2023-02-28T19:44:35.436Z,99466.91
2023-02-28T19:47:41.365Z,99469.50
2023-02-28T19:50:47.789Z,99466.06
2023-02-28T19:53:53.456Z,99466.09
2023-02-28T19:57:02.119Z,99464.41
2023-02-28T20:00:17.354Z,99463.56
2023-02-28T20:03:24.078Z,99465.28
2023-02-28T20:06:30.081Z,99467.03
2023-02-28T20:09:37.194Z,99470.47
2023-02-28T20:12:42.959Z,99468.78
2023-02-28T20:15:52.403Z,99468.81
2023-02-28T20:18:58.589Z,99468.81
2023-02-28T20:22:05.485Z,99473.19
2023-02-28T20:25:12.463Z,99477.50
2023-02-28T20:28:19.037Z,99475.78
2023-02-28T20:31:30.769Z,99467.16
2023-02-28T20:34:37.600Z,99468.88
2023-02-28T20:37:44.857Z,99461.97
2023-02-28T20:40:51.277Z,99464.59
2023-02-28T20:43:58.376Z,99455.06
2023-02-28T20:47:07.870Z,99458.56
2023-02-28T20:50:14.989Z,99458.56
2023-02-28T20:53:22.140Z,99448.22
2023-02-28T20:56:28.618Z,99459.44
2023-02-28T20:59:35.928Z,99460.31
2023-02-28T21:02:44.461Z,99452.59
2023-02-28T21:05:50.860Z,99456.94
2023-02-28T21:08:57.354Z,99447.44
2023-02-28T21:12:03.770Z,99453.53
2023-02-28T21:15:10.940Z,99444.94
2023-02-28T21:18:20.097Z,99444.94
2023-02-28T21:21:28.406Z,99448.41
2023-02-28T21:24:35.147Z,99442.38
2023-02-28T21:27:40.816Z,99442.38
2023-02-28T21:30:47.227Z,99455.28
2023-02-28T21:33:57.447Z,99450.94
2023-02-28T21:37:04.007Z,99448.38
2023-02-28T21:40:11.959Z,99454.38
2023-02-28T21:43:18.291Z,99448.34
2023-02-28T21:46:26.550Z,99448.34
2023-02-28T21:49:35.827Z,99450.03
2023-02-28T21:52:41.909Z,99451.75
2023-02-28T21:55:48.212Z,99456.97
2023-02-28T21:59:01.619Z,99461.28
2023-02-28T22:02:10.854Z,99448.41
2023-02-28T22:05:19.446Z,99447.53
2023-02-28T22:08:25.745Z,99450.09
2023-02-28T22:11:32.424Z,99426.94
2023-02-28T22:14:40.062Z,99462.19
2023-02-28T22:17:45.859Z,99463.94
2023-02-28T22:20:59.961Z,99460.47
2023-02-28T22:24:06.226Z,99449.25
2023-02-28T22:27:12.569Z,99451.84
2023-02-28T22:30:18.838Z,99461.34
2023-02-28T22:33:25.162Z,99472.56
2023-02-28T22:36:34.685Z,99460.53
2023-02-28T22:39:41.010Z,99470.00
2023-02-28T22:42:46.393Z,99474.31
2023-02-28T22:45:52.719Z,99471.75
2023-02-28T22:48:58.942Z,99471.75
2023-02-28T22:52:08.635Z,99478.69
2023-02-28T22:55:14.587Z,99476.16
2023-02-28T22:58:20.881Z,99479.66
2023-02-28T23:01:30.092Z,99483.16
2023-02-28T23:04:36.744Z,99482.31
2023-02-28T23:07:46.770Z,99497.84
2023-02-28T23:10:54.139Z,99497.00
2023-02-28T23:14:03.322Z,99505.66
2023-02-28T23:17:09.621Z,99503.06
2023-02-28T23:20:16.436Z,99495.31
2023-02-28T23:23:31.280Z,99503.91
2023-02-28T23:26:36.818Z,99486.69
2023-02-28T23:29:43.885Z,99481.53
2023-02-28T23:32:49.373Z,99477.25
2023-02-28T23:35:58.654Z,99479.84
2023-02-28T23:39:07.105Z,99482.41
2023-02-28T23:42:14.425Z,99475.53
2023-02-28T23:45:20.156Z,99475.50
2023-02-28T23:48:26.458Z,99474.66
2023-02-28T23:51:31.933Z,99477.22
2023-02-28T23:54:40.962Z,99481.53
2023-02-28T23:57:46.425Z,99489.28
